sensor_id;sensor_type;location;lat;lon;timestamp;pressure;altitude;pressure_sealevel;temperature;humidity
64841;BME280;51307;52.162;7.560;2023-02-14T00:02:07;103027.22;;;4.30;57.73
64841;BME280;51307;52.162;7.560;2023-02-14T00:04:32;103029.72;;;4.33;57.39
64841;BME280;51307;52.162;7.560;2023-02-14T00:06:58;103026.75;;;4.20;57.65
64841;BME280;51307;52.162;7.560;2023-02-14T00:09:26;103027.28;;;4.28;57.18
64841;BME280;51307;52.162;7.560;2023-02-14T00:11:51;103031.13;;;4.21;57.76
64841;BME280;51307;52.162;7.560;2023-02-14T00:14:17;103025.94;;;4.18;57.41
64841;BME280;51307;52.162;7.560;2023-02-14T00:17:02;103024.34;;;4.14;57.61
64841;BME280;51307;52.162;7.560;2023-02-14T00:19:28;103025.94;;;4.18;57.38
64841;BME280;51307;52.162;7.560;2023-02-14T00:21:53;103024.34;;;4.57;56.60
64841;BME280;51307;52.162;7.560;2023-02-14T00:24:22;103027.13;;;4.11;57.27
64841;BME280;51307;52.162;7.560;2023-02-14T00:26:49;103017.72;;;4.03;57.83
64841;BME280;51307;52.162;7.560;2023-02-14T00:29:21;103020.59;;;3.97;57.59
64841;BME280;51307;52.162;7.560;2023-02-14T00:31:47;103027.19;;;4.09;57.93
64841;BME280;51307;52.162;7.560;2023-02-14T00:34:15;103022.47;;;3.95;58.15
64841;BME280;51307;52.162;7.560;2023-02-14T00:36:41;103015.31;;;3.97;57.82
64841;BME280;51307;52.162;7.560;2023-02-14T00:39:09;103020.84;;;3.91;58.39
64841;BME280;51307;52.162;7.560;2023-02-14T00:41:35;103022.06;;;4.04;57.95
64841;BME280;51307;52.162;7.560;2023-02-14T00:44:01;103021.41;;;3.99;58.27
64841;BME280;51307;52.162;7.560;2023-02-14T00:46:27;103029.31;;;4.01;58.41
64841;BME280;51307;52.162;7.560;2023-02-14T00:48:53;103021.34;;;4.01;58.59
64841;BME280;51307;52.162;7.560;2023-02-14T00:51:20;103020.97;;;4.10;58.89
64841;BME280;51307;52.162;7.560;2023-02-14T00:53:47;103018.63;;;4.02;58.69
64841;BME280;51307;52.162;7.560;2023-02-14T00:56:14;103014.47;;;3.97;58.08
64841;BME280;51307;52.162;7.560;2023-02-14T00:58:40;103017.66;;;4.05;57.98
64841;BME280;51307;52.162;7.560;2023-02-14T01:01:07;103024.84;;;4.01;57.80
64841;BME280;51307;52.162;7.560;2023-02-14T01:03:33;103024.25;;;3.95;57.78
64841;BME280;51307;52.162;7.560;2023-02-14T01:05:59;103027.03;;;3.92;57.81
64841;BME280;51307;52.162;7.560;2023-02-14T01:08:25;103028.13;;;3.86;58.36
64841;BME280;51307;52.162;7.560;2023-02-14T01:10:51;103027.31;;;3.84;58.10
64841;BME280;51307;52.162;7.560;2023-02-14T01:13:17;103031.63;;;3.86;57.48
64841;BME280;51307;52.162;7.560;2023-02-14T01:15:48;103029.28;;;3.79;57.97
64841;BME280;51307;52.162;7.560;2023-02-14T01:18:15;103039.78;;;3.82;57.76
64841;BME280;51307;52.162;7.560;2023-02-14T01:20:41;103034.72;;;3.76;57.86
64841;BME280;51307;52.162;7.560;2023-02-14T01:23:07;103032.97;;;3.75;57.91
64841;BME280;51307;52.162;7.560;2023-02-14T01:25:35;103030.34;;;3.75;58.03
64841;BME280;51307;52.162;7.560;2023-02-14T01:28:01;103042.16;;;3.66;58.41
64841;BME280;51307;52.162;7.560;2023-02-14T01:30:26;103039.09;;;3.77;57.63
64841;BME280;51307;52.162;7.560;2023-02-14T01:32:51;103041.47;;;3.83;57.75
64841;BME280;51307;52.162;7.560;2023-02-14T01:35:17;103038.28;;;3.75;58.16
64841;BME280;51307;52.162;7.560;2023-02-14T01:37:43;103032.06;;;3.76;57.85
64841;BME280;51307;52.162;7.560;2023-02-14T01:40:09;103039.31;;;3.70;58.10
64841;BME280;51307;52.162;7.560;2023-02-14T01:42:35;103038.00;;;3.59;58.40
64841;BME280;51307;52.162;7.560;2023-02-14T01:47:31;103034.44;;;3.60;58.35
64841;BME280;51307;52.162;7.560;2023-02-14T01:50:13;103026.16;;;3.69;58.17
64841;BME280;51307;52.162;7.560;2023-02-14T01:53:03;103033.34;;;3.65;58.52
64841;BME280;51307;52.162;7.560;2023-02-14T01:55:37;103023.69;;;3.64;58.07
64841;BME280;51307;52.162;7.560;2023-02-14T01:58:09;103021.03;;;3.64;57.75
64841;BME280;51307;52.162;7.560;2023-02-14T02:00:37;103020.47;;;3.56;58.16
64841;BME280;51307;52.162;7.560;2023-02-14T02:03:33;103019.84;;;3.49;57.83
64841;BME280;51307;52.162;7.560;2023-02-14T02:06:17;103028.31;;;3.35;58.26
64841;BME280;51307;52.162;7.560;2023-02-14T02:11:26;103027.91;;;3.46;58.17
64841;BME280;51307;52.162;7.560;2023-02-14T02:13:52;103025.44;;;3.42;58.03
64841;BME280;51307;52.162;7.560;2023-02-14T02:16:34;103021.28;;;3.34;58.67
64841;BME280;51307;52.162;7.560;2023-02-14T02:19:26;103016.81;;;3.36;58.90
64841;BME280;51307;52.162;7.560;2023-02-14T02:24:35;103016.81;;;3.36;59.22
64841;BME280;51307;52.162;7.560;2023-02-14T02:27:09;103023.09;;;3.34;59.51
64841;BME280;51307;52.162;7.560;2023-02-14T02:32:54;103009.44;;;3.45;59.61
64841;BME280;51307;52.162;7.560;2023-02-14T02:44:15;102995.84;;;3.54;60.16
64841;BME280;51307;52.162;7.560;2023-02-14T02:58:34;102989.38;;;3.61;59.33
64841;BME280;51307;52.162;7.560;2023-02-14T03:01:10;102987.00;;;3.55;60.30
64841;BME280;51307;52.162;7.560;2023-02-14T03:03:42;102991.31;;;3.58;60.20
64841;BME280;51307;52.162;7.560;2023-02-14T03:06:29;102989.00;;;3.70;60.43
64841;BME280;51307;52.162;7.560;2023-02-14T03:08:55;102982.25;;;3.63;59.63
64841;BME280;51307;52.162;7.560;2023-02-14T03:11:23;102984.84;;;3.65;60.53
64841;BME280;51307;52.162;7.560;2023-02-14T03:19:19;102969.00;;;3.63;59.16
64841;BME280;51307;52.162;7.560;2023-02-14T03:25:27;102963.03;;;3.58;58.60
64841;BME280;51307;52.162;7.560;2023-02-14T03:33:32;102974.91;;;3.48;59.04
64841;BME280;51307;52.162;7.560;2023-02-14T03:36:05;102965.00;;;3.53;58.79
64841;BME280;51307;52.162;7.560;2023-02-14T03:38:46;102968.19;;;3.39;58.51
64841;BME280;51307;52.162;7.560;2023-02-14T03:41:23;102956.63;;;3.42;58.95
64841;BME280;51307;52.162;7.560;2023-02-14T03:43:54;102961.13;;;3.40;58.64
64841;BME280;51307;52.162;7.560;2023-02-14T03:46:29;102952.25;;;3.41;58.59
64841;BME280;51307;52.162;7.560;2023-02-14T03:48:59;102957.53;;;3.41;58.25
64841;BME280;51307;52.162;7.560;2023-02-14T03:51:29;102952.47;;;3.34;58.51
64841;BME280;51307;52.162;7.560;2023-02-14T03:54:03;102948.50;;;3.24;58.63
64841;BME280;51307;52.162;7.560;2023-02-14T03:56:36;102947.50;;;3.27;58.57
64841;BME280;51307;52.162;7.560;2023-02-14T03:59:13;102950.31;;;3.22;59.01
64841;BME280;51307;52.162;7.560;2023-02-14T04:04:18;102954.56;;;3.26;58.60
64841;BME280;51307;52.162;7.560;2023-02-14T04:06:44;102962.84;;;3.17;58.37
64841;BME280;51307;52.162;7.560;2023-02-14T04:09:09;102951.63;;;3.12;58.19
64841;BME280;51307;52.162;7.560;2023-02-14T04:11:35;102947.88;;;3.17;58.36
64841;BME280;51307;52.162;7.560;2023-02-14T04:14:03;102961.94;;;3.18;58.20
64841;BME280;51307;52.162;7.560;2023-02-14T04:16:29;102961.16;;;3.16;57.94
64841;BME280;51307;52.162;7.560;2023-02-14T04:18:55;102962.84;;;3.17;57.97
64841;BME280;51307;52.162;7.560;2023-02-14T04:21:39;102966.66;;;3.10;58.13
64841;BME280;51307;52.162;7.560;2023-02-14T04:24:05;102958.50;;;2.92;59.03
64841;BME280;51307;52.162;7.560;2023-02-14T04:26:30;102961.44;;;3.08;58.58
64841;BME280;51307;52.162;7.560;2023-02-14T04:28:56;102958.69;;;2.87;58.48
64841;BME280;51307;52.162;7.560;2023-02-14T04:31:21;102963.34;;;2.81;58.50
64841;BME280;51307;52.162;7.560;2023-02-14T04:33:47;102956.06;;;2.86;58.65
64841;BME280;51307;52.162;7.560;2023-02-14T04:36:14;102957.22;;;2.79;58.99
64841;BME280;51307;52.162;7.560;2023-02-14T04:38:40;102956.59;;;2.72;59.21
64841;BME280;51307;52.162;7.560;2023-02-14T04:41:05;102950.97;;;2.81;58.66
64841;BME280;51307;52.162;7.560;2023-02-14T04:43:31;102946.78;;;2.76;60.16
64841;BME280;51307;52.162;7.560;2023-02-14T04:45:56;102949.56;;;2.71;59.78
64841;BME280;51307;52.162;7.560;2023-02-14T04:48:22;102950.47;;;2.70;59.11
64841;BME280;51307;52.162;7.560;2023-02-14T04:50:54;102936.09;;;2.79;58.61
64841;BME280;51307;52.162;7.560;2023-02-14T04:53:20;102934.63;;;2.70;58.70
64841;BME280;51307;52.162;7.560;2023-02-14T04:55:50;102927.97;;;2.83;58.68
64841;BME280;51307;52.162;7.560;2023-02-14T04:58:16;102925.50;;;2.79;58.68
64841;BME280;51307;52.162;7.560;2023-02-14T05:00:42;102930.91;;;2.76;58.98
64841;BME280;51307;52.162;7.560;2023-02-14T05:03:07;102928.97;;;2.81;58.82
64841;BME280;51307;52.162;7.560;2023-02-14T05:05:33;102925.38;;;2.82;58.58
64841;BME280;51307;52.162;7.560;2023-02-14T05:07:58;102923.78;;;2.78;58.45
64841;BME280;51307;52.162;7.560;2023-02-14T05:10:23;102915.66;;;2.59;58.77
64841;BME280;51307;52.162;7.560;2023-02-14T05:12:49;102921.00;;;2.57;58.99
64841;BME280;51307;52.162;7.560;2023-02-14T05:15:14;102922.09;;;2.51;59.55
64841;BME280;51307;52.162;7.560;2023-02-14T05:17:40;102917.47;;;2.33;59.47
64841;BME280;51307;52.162;7.560;2023-02-14T05:20:06;102923.25;;;2.19;59.46
64841;BME280;51307;52.162;7.560;2023-02-14T05:22:32;102917.13;;;2.17;59.75
64841;BME280;51307;52.162;7.560;2023-02-14T05:24:58;102908.50;;;2.12;59.91
64841;BME280;51307;52.162;7.560;2023-02-14T05:27:23;102904.53;;;2.25;59.81
64841;BME280;51307;52.162;7.560;2023-02-14T05:29:48;102914.38;;;2.20;60.35
64841;BME280;51307;52.162;7.560;2023-02-14T05:32:14;102919.97;;;2.12;60.34
64841;BME280;51307;52.162;7.560;2023-02-14T05:34:39;102913.47;;;2.21;59.90
64841;BME280;51307;52.162;7.560;2023-02-14T05:37:05;102925.78;;;2.22;60.18
64841;BME280;51307;52.162;7.560;2023-02-14T05:39:30;102921.72;;;2.12;60.43
64841;BME280;51307;52.162;7.560;2023-02-14T05:41:56;102928.31;;;2.25;60.45
64841;BME280;51307;52.162;7.560;2023-02-14T05:44:21;102926.78;;;2.18;60.85
64841;BME280;51307;52.162;7.560;2023-02-14T05:46:47;102928.63;;;2.16;60.78
64841;BME280;51307;52.162;7.560;2023-02-14T05:49:13;102926.91;;;2.15;60.66
64841;BME280;51307;52.162;7.560;2023-02-14T05:51:38;102927.31;;;2.02;60.98
64841;BME280;51307;52.162;7.560;2023-02-14T05:54:04;102926.91;;;2.15;60.54
64841;BME280;51307;52.162;7.560;2023-02-14T05:56:29;102931.03;;;1.97;61.00
64841;BME280;51307;52.162;7.560;2023-02-14T05:58:55;102928.31;;;1.98;60.77
64841;BME280;51307;52.162;7.560;2023-02-14T06:01:20;102927.13;;;1.82;61.35
64841;BME280;51307;52.162;7.560;2023-02-14T06:03:46;102932.88;;;1.95;61.10
64841;BME280;51307;52.162;7.560;2023-02-14T06:06:11;102933.53;;;2.01;60.56
64841;BME280;51307;52.162;7.560;2023-02-14T06:08:37;102932.88;;;1.95;60.69
64841;BME280;51307;52.162;7.560;2023-02-14T06:11:02;102932.94;;;1.92;61.11
64841;BME280;51307;52.162;7.560;2023-02-14T06:13:28;102936.53;;;1.91;60.81
64841;BME280;51307;52.162;7.560;2023-02-14T06:15:53;102939.91;;;1.94;60.80
64841;BME280;51307;52.162;7.560;2023-02-14T06:18:19;102935.66;;;1.90;60.72
64841;BME280;51307;52.162;7.560;2023-02-14T06:20:44;102936.38;;;1.95;60.73
64841;BME280;51307;52.162;7.560;2023-02-14T06:23:10;102939.84;;;1.97;60.34
64841;BME280;51307;52.162;7.560;2023-02-14T06:25:36;102944.44;;;1.91;60.36
64841;BME280;51307;52.162;7.560;2023-02-14T06:28:01;102939.53;;;1.80;60.76
64841;BME280;51307;52.162;7.560;2023-02-14T06:30:27;102943.72;;;1.85;60.50
64841;BME280;51307;52.162;7.560;2023-02-14T06:32:52;102942.84;;;1.85;60.19
64841;BME280;51307;52.162;7.560;2023-02-14T06:35:18;102949.69;;;1.92;60.17
64841;BME280;51307;52.162;7.560;2023-02-14T06:37:44;102944.69;;;1.83;60.57
64841;BME280;51307;52.162;7.560;2023-02-14T06:40:11;102944.88;;;1.77;60.70
64841;BME280;51307;52.162;7.560;2023-02-14T06:42:37;102942.91;;;1.83;60.33
64841;BME280;51307;52.162;7.560;2023-02-14T06:45:04;102948.66;;;1.96;60.26
64841;BME280;51307;52.162;7.560;2023-02-14T06:47:29;102945.66;;;1.80;60.59
64841;BME280;51307;52.162;7.560;2023-02-14T06:49:55;102950.06;;;2.07;60.06
64841;BME280;51307;52.162;7.560;2023-02-14T06:52:20;102943.16;;;1.76;60.44
64841;BME280;51307;52.162;7.560;2023-02-14T06:54:46;102944.63;;;1.84;60.39
64841;BME280;51307;52.162;7.560;2023-02-14T06:57:12;102950.41;;;1.96;60.12
64841;BME280;51307;52.162;7.560;2023-02-14T06:59:37;102952.75;;;2.05;59.60
64841;BME280;51307;52.162;7.560;2023-02-14T07:02:03;102954.53;;;2.05;59.82
64841;BME280;51307;52.162;7.560;2023-02-14T07:04:28;102959.59;;;2.11;59.79
64841;BME280;51307;52.162;7.560;2023-02-14T07:06:54;102957.19;;;2.05;59.80
64841;BME280;51307;52.162;7.560;2023-02-14T07:09:19;102963.78;;;2.18;59.77
64841;BME280;51307;52.162;7.560;2023-02-14T07:11:46;102962.94;;;2.16;59.96
64841;BME280;51307;52.162;7.560;2023-02-14T07:14:12;102960.81;;;2.27;59.55
64841;BME280;51307;52.162;7.560;2023-02-14T07:16:38;102958.31;;;2.23;59.28
64841;BME280;51307;52.162;7.560;2023-02-14T07:19:03;102960.72;;;2.30;59.38
64841;BME280;51307;52.162;7.560;2023-02-14T07:21:29;102956.81;;;2.15;59.83
64841;BME280;51307;52.162;7.560;2023-02-14T07:23:55;102957.91;;;2.10;59.49
64841;BME280;51307;52.162;7.560;2023-02-14T07:26:20;102964.75;;;2.15;59.90
64841;BME280;51307;52.162;7.560;2023-02-14T07:28:47;102964.09;;;2.09;59.93
64841;BME280;51307;52.162;7.560;2023-02-14T07:31:14;102965.53;;;2.17;59.62
64841;BME280;51307;52.162;7.560;2023-02-14T07:33:40;102968.22;;;2.16;60.10
64841;BME280;51307;52.162;7.560;2023-02-14T07:36:07;102967.72;;;2.31;59.85
64841;BME280;51307;52.162;7.560;2023-02-14T07:38:34;102965.88;;;2.33;60.11
64841;BME280;51307;52.162;7.560;2023-02-14T07:40:59;102967.41;;;2.41;59.92
64841;BME280;51307;52.162;7.560;2023-02-14T07:43:25;102964.44;;;2.50;60.25
64841;BME280;51307;52.162;7.560;2023-02-14T07:45:51;102958.00;;;2.57;60.21
64841;BME280;51307;52.162;7.560;2023-02-14T07:48:17;102955.25;;;2.60;61.13
64841;BME280;51307;52.162;7.560;2023-02-14T07:50:42;102953.25;;;2.67;62.20
64841;BME280;51307;52.162;7.560;2023-02-14T07:53:08;102951.13;;;2.77;62.42
64841;BME280;51307;52.162;7.560;2023-02-14T07:55:33;102954.19;;;2.90;62.47
64841;BME280;51307;52.162;7.560;2023-02-14T07:57:59;102952.25;;;2.95;62.41
64841;BME280;51307;52.162;7.560;2023-02-14T08:00:25;102952.06;;;2.99;62.88
64841;BME280;51307;52.162;7.560;2023-02-14T08:02:50;102948.38;;;2.80;64.02
64841;BME280;51307;52.162;7.560;2023-02-14T08:05:16;102957.56;;;2.69;64.61
64841;BME280;51307;52.162;7.560;2023-02-14T08:07:42;102950.47;;;2.70;64.95
64841;BME280;51307;52.162;7.560;2023-02-14T08:10:09;102953.56;;;2.83;64.72
64841;BME280;51307;52.162;7.560;2023-02-14T08:12:34;102954.47;;;2.82;64.77
64841;BME280;51307;52.162;7.560;2023-02-14T08:15:18;102949.19;;;2.82;65.18
64841;BME280;51307;52.162;7.560;2023-02-14T08:18:02;102946.06;;;3.18;64.58
64841;BME280;51307;52.162;7.560;2023-02-14T08:20:28;102950.00;;;3.53;63.69
64841;BME280;51307;52.162;7.560;2023-02-14T08:22:53;102947.53;;;3.71;63.34
64841;BME280;51307;52.162;7.560;2023-02-14T08:25:19;102942.19;;;3.93;63.19
64841;BME280;51307;52.162;7.560;2023-02-14T08:27:44;102948.47;;;3.91;62.76
64841;BME280;51307;52.162;7.560;2023-02-14T08:30:10;102958.03;;;4.15;62.82
64841;BME280;51307;52.162;7.560;2023-02-14T08:32:36;102950.44;;;4.08;63.25
64841;BME280;51307;52.162;7.560;2023-02-14T08:35:01;102949.97;;;4.39;62.78
64841;BME280;51307;52.162;7.560;2023-02-14T08:37:27;102959.22;;;4.51;62.64
64841;BME280;51307;52.162;7.560;2023-02-14T08:39:52;102963.16;;;4.20;63.20
64841;BME280;51307;52.162;7.560;2023-02-14T08:42:17;102960.03;;;4.31;63.44
64841;BME280;51307;52.162;7.560;2023-02-14T08:44:43;102960.38;;;4.44;63.16
64841;BME280;51307;52.162;7.560;2023-02-14T08:47:08;102960.78;;;4.34;63.69
64841;BME280;51307;52.162;7.560;2023-02-14T08:49:34;102956.41;;;4.33;64.08
64841;BME280;51307;52.162;7.560;2023-02-14T08:51:59;102953.03;;;4.50;63.80
64841;BME280;51307;52.162;7.560;2023-02-14T08:54:25;102947.63;;;4.53;63.57
64841;BME280;51307;52.162;7.560;2023-02-14T08:56:50;102947.63;;;4.53;63.92
64841;BME280;51307;52.162;7.560;2023-02-14T08:59:16;102952.13;;;4.91;63.15
64841;BME280;51307;52.162;7.560;2023-02-14T09:01:41;102944.94;;;4.93;63.16
64841;BME280;51307;52.162;7.560;2023-02-14T09:04:07;102942.94;;;4.79;63.32
64841;BME280;51307;52.162;7.560;2023-02-14T09:06:36;102942.50;;;5.08;62.84
64841;BME280;51307;52.162;7.560;2023-02-14T09:09:03;102946.75;;;5.12;62.58
64841;BME280;51307;52.162;7.560;2023-02-14T09:11:28;102946.31;;;5.02;63.08
64841;BME280;51307;52.162;7.560;2023-02-14T09:13:54;102936.63;;;5.20;62.89
64841;BME280;51307;52.162;7.560;2023-02-14T09:16:24;102930.81;;;5.12;63.04
64841;BME280;51307;52.162;7.560;2023-02-14T09:18:51;102926.16;;;5.36;62.84
64841;BME280;51307;52.162;7.560;2023-02-14T09:21:23;102928.16;;;5.31;62.98
64841;BME280;51307;52.162;7.560;2023-02-14T09:23:49;102927.34;;;5.48;62.77
64841;BME280;51307;52.162;7.560;2023-02-14T09:26:16;102922.69;;;5.53;62.55
64841;BME280;51307;52.162;7.560;2023-02-14T09:28:42;102916.75;;;5.65;62.68
64841;BME280;51307;52.162;7.560;2023-02-14T09:31:14;102921.63;;;5.75;62.51
64841;BME280;51307;52.162;7.560;2023-02-14T09:33:40;102924.81;;;5.81;62.94
64841;BME280;51307;52.162;7.560;2023-02-14T09:36:18;102926.16;;;5.90;63.03
64841;BME280;51307;52.162;7.560;2023-02-14T09:38:44;102927.41;;;6.00;62.93
64841;BME280;51307;52.162;7.560;2023-02-14T09:41:47;102917.16;;;6.10;63.03
64841;BME280;51307;52.162;7.560;2023-02-14T09:46:56;102922.00;;;6.19;63.08
64841;BME280;51307;52.162;7.560;2023-02-14T09:49:42;102925.66;;;6.34;62.64
64841;BME280;51307;52.162;7.560;2023-02-14T09:52:12;102925.66;;;6.34;62.91
64841;BME280;51307;52.162;7.560;2023-02-14T09:54:42;102929.66;;;6.43;62.75
64841;BME280;51307;52.162;7.560;2023-02-14T09:57:42;102926.44;;;6.54;62.66
64841;BME280;51307;52.162;7.560;2023-02-14T10:00:24;102920.75;;;6.60;62.80
64841;BME280;51307;52.162;7.560;2023-02-14T10:08:26;102917.13;;;6.79;62.11
64841;BME280;51307;52.162;7.560;2023-02-14T10:11:07;102919.47;;;6.85;62.09
64841;BME280;51307;52.162;7.560;2023-02-14T10:16:32;102907.06;;;7.01;61.91
64841;BME280;51307;52.162;7.560;2023-02-14T10:21:57;102904.41;;;7.17;61.70
64841;BME280;51307;52.162;7.560;2023-02-14T10:27:16;102909.13;;;7.28;61.32
64841;BME280;51307;52.162;7.560;2023-02-14T10:29:43;102905.56;;;7.28;60.96
64841;BME280;51307;52.162;7.560;2023-02-14T10:32:23;102897.84;;;7.39;60.59
64841;BME280;51307;52.162;7.560;2023-02-14T10:34:55;102896.63;;;7.45;60.41
64841;BME280;51307;52.162;7.560;2023-02-14T10:43:28;102891.38;;;7.59;59.84
64841;BME280;51307;52.162;7.560;2023-02-14T10:51:38;102885.19;;;7.89;58.72
64841;BME280;51307;52.162;7.560;2023-02-14T10:54:26;102883.28;;;7.91;58.30
64841;BME280;51307;52.162;7.560;2023-02-14T11:02:30;102881.78;;;8.01;57.61
64841;BME280;51307;52.162;7.560;2023-02-14T11:04:58;102875.13;;;8.08;57.71
64841;BME280;51307;52.162;7.560;2023-02-14T11:07:24;102871.97;;;8.16;57.91
64841;BME280;51307;52.162;7.560;2023-02-14T11:09:50;102868.28;;;8.19;57.50
64841;BME280;51307;52.162;7.560;2023-02-14T11:17:38;102857.91;;;8.29;57.42
64841;BME280;51307;52.162;7.560;2023-02-14T11:22:47;102859.06;;;8.53;55.22
64841;BME280;51307;52.162;7.560;2023-02-14T11:25:23;102858.78;;;8.44;56.22
64841;BME280;51307;52.162;7.560;2023-02-14T11:28:01;102855.44;;;8.54;55.32
64841;BME280;51307;52.162;7.560;2023-02-14T11:30:37;102849.13;;;8.55;54.84
64841;BME280;51307;52.162;7.560;2023-02-14T11:33:04;102851.13;;;8.66;54.94
64841;BME280;51307;52.162;7.560;2023-02-14T11:35:31;102843.22;;;8.65;54.93
64841;BME280;51307;52.162;7.560;2023-02-14T11:38:02;102840.44;;;8.66;55.17
64841;BME280;51307;52.162;7.560;2023-02-14T11:42:58;102834.34;;;8.79;55.23
64841;BME280;51307;52.162;7.560;2023-02-14T11:45:31;102830.78;;;8.78;55.50
64841;BME280;51307;52.162;7.560;2023-02-14T11:51:11;102815.16;;;8.86;54.62
64841;BME280;51307;52.162;7.560;2023-02-14T11:56:09;102804.25;;;9.04;54.15
64841;BME280;51307;52.162;7.560;2023-02-14T11:58:40;102799.00;;;9.02;54.43
64841;BME280;51307;52.162;7.560;2023-02-14T12:01:19;102795.06;;;9.08;54.68
64841;BME280;51307;52.162;7.560;2023-02-14T12:03:47;102798.50;;;9.10;54.21
64841;BME280;51307;52.162;7.560;2023-02-14T12:06:25;102790.94;;;9.17;54.03
64841;BME280;51307;52.162;7.560;2023-02-14T12:09:16;102792.13;;;9.25;53.10
64841;BME280;51307;52.162;7.560;2023-02-14T12:12:03;102783.63;;;9.33;53.70
64841;BME280;51307;52.162;7.560;2023-02-14T12:14:33;102784.56;;;9.32;54.56
64841;BME280;51307;52.162;7.560;2023-02-14T12:19:51;102772.41;;;9.41;53.88
64841;BME280;51307;52.162;7.560;2023-02-14T12:22:25;102770.16;;;9.35;53.24
64841;BME280;51307;52.162;7.560;2023-02-14T12:25:09;102768.03;;;9.40;53.24
64841;BME280;51307;52.162;7.560;2023-02-14T12:27:55;102771.69;;;9.52;53.42
64841;BME280;51307;52.162;7.560;2023-02-14T12:30:26;102769.34;;;9.47;54.23
64841;BME280;51307;52.162;7.560;2023-02-14T12:32:55;102770.84;;;9.51;52.25
64841;BME280;51307;52.162;7.560;2023-02-14T12:38:28;102764.66;;;9.64;51.79
64841;BME280;51307;52.162;7.560;2023-02-14T12:43:46;102751.81;;;9.69;51.39
64841;BME280;51307;52.162;7.560;2023-02-14T13:00:21;102741.31;;;9.91;53.18
64841;BME280;51307;52.162;7.560;2023-02-14T13:13:47;102717.44;;;10.14;52.71
64841;BME280;51307;52.162;7.560;2023-02-14T13:16:36;102719.50;;;10.10;53.30
64841;BME280;51307;52.162;7.560;2023-02-14T13:19:48;102713.69;;;10.17;52.38
64841;BME280;51307;52.162;7.560;2023-02-14T13:22:21;102720.75;;;10.18;52.13
64841;BME280;51307;52.162;7.560;2023-02-14T13:24:59;102710.03;;;10.31;52.04
64841;BME280;51307;52.162;7.560;2023-02-14T13:27:31;102713.19;;;10.36;51.93
64841;BME280;51307;52.162;7.560;2023-02-14T13:30:02;102706.72;;;10.27;52.14
64841;BME280;51307;52.162;7.560;2023-02-14T13:32:40;102702.72;;;10.33;52.52
64841;BME280;51307;52.162;7.560;2023-02-14T13:35:07;102696.06;;;10.38;52.51
64841;BME280;51307;52.162;7.560;2023-02-14T13:37:45;102690.72;;;10.38;51.98
64841;BME280;51307;52.162;7.560;2023-02-14T13:40:19;102688.16;;;10.37;52.33
64841;BME280;51307;52.162;7.560;2023-02-14T13:51:02;102676.25;;;10.41;52.43
64841;BME280;51307;52.162;7.560;2023-02-14T13:53:41;102669.94;;;10.55;51.91
64841;BME280;51307;52.162;7.560;2023-02-14T13:58:46;102666.78;;;10.61;51.72
64841;BME280;51307;52.162;7.560;2023-02-14T14:01:43;102663.25;;;10.60;52.05
64841;BME280;51307;52.162;7.560;2023-02-14T14:22:56;102652.41;;;10.86;49.85
64841;BME280;51307;52.162;7.560;2023-02-14T14:25:33;102653.41;;;10.97;50.31
64841;BME280;51307;52.162;7.560;2023-02-14T14:28:08;102660.97;;;11.03;49.88
64841;BME280;51307;52.162;7.560;2023-02-14T14:30:35;102661.59;;;11.06;49.61
64841;BME280;51307;52.162;7.560;2023-02-14T14:33:13;102653.09;;;11.24;49.43
64841;BME280;51307;52.162;7.560;2023-02-14T14:35:38;102653.34;;;11.32;48.69
64841;BME280;51307;52.162;7.560;2023-02-14T14:38:04;102647.91;;;11.45;47.71
64841;BME280;51307;52.162;7.560;2023-02-14T14:40:33;102644.75;;;11.63;47.19
64841;BME280;51307;52.162;7.560;2023-02-14T14:43:13;102636.94;;;11.71;49.02
64841;BME280;51307;52.162;7.560;2023-02-14T14:45:40;102633.88;;;11.98;51.04
64841;BME280;51307;52.162;7.560;2023-02-14T14:48:12;102619.81;;;12.17;49.19
64841;BME280;51307;52.162;7.560;2023-02-14T14:50:45;102627.78;;;12.40;49.32
64841;BME280;51307;52.162;7.560;2023-02-14T14:53:42;102622.41;;;12.72;49.88
64841;BME280;51307;52.162;7.560;2023-02-14T14:56:33;102628.13;;;13.00;46.09
64841;BME280;51307;52.162;7.560;2023-02-14T14:59:28;102624.28;;;13.45;44.86
64841;BME280;51307;52.162;7.560;2023-02-14T15:01:55;102617.16;;;14.25;44.30
64841;BME280;51307;52.162;7.560;2023-02-14T15:06:57;102619.50;;;15.64;39.80
64841;BME280;51307;52.162;7.560;2023-02-14T15:09:32;102619.75;;;16.17;38.33
64841;BME280;51307;52.162;7.560;2023-02-14T15:12:02;102620.84;;;16.60;37.18
64841;BME280;51307;52.162;7.560;2023-02-14T15:14:49;102617.06;;;17.23;36.13
64841;BME280;51307;52.162;7.560;2023-02-14T15:17:24;102616.94;;;17.51;35.46
64841;BME280;51307;52.162;7.560;2023-02-14T15:19:55;102613.31;;;17.85;34.44
64841;BME280;51307;52.162;7.560;2023-02-14T15:22:25;102614.41;;;17.58;34.62
64841;BME280;51307;52.162;7.560;2023-02-14T15:24:54;102608.81;;;18.10;34.07
64841;BME280;51307;52.162;7.560;2023-02-14T15:27:23;102613.50;;;17.92;34.04
64841;BME280;51307;52.162;7.560;2023-02-14T15:29:53;102602.94;;;17.72;34.54
64841;BME280;51307;52.162;7.560;2023-02-14T15:32:20;102597.97;;;17.25;34.99
64841;BME280;51307;52.162;7.560;2023-02-14T15:34:46;102610.53;;;17.34;35.38
64841;BME280;51307;52.162;7.560;2023-02-14T15:37:13;102605.56;;;17.98;34.62
64841;BME280;51307;52.162;7.560;2023-02-14T15:39:48;102597.88;;;16.82;36.33
64841;BME280;51307;52.162;7.560;2023-02-14T15:48:10;102584.56;;;16.08;36.91
64841;BME280;51307;52.162;7.560;2023-02-14T15:50:44;102586.81;;;14.82;39.24
64841;BME280;51307;52.162;7.560;2023-02-14T15:55:49;102579.13;;;13.99;40.61
64841;BME280;51307;52.162;7.560;2023-02-14T15:58:27;102578.28;;;13.99;40.70
64841;BME280;51307;52.162;7.560;2023-02-14T16:00:55;102581.16;;;13.25;42.22
64841;BME280;51307;52.162;7.560;2023-02-14T16:03:31;102584.38;;;13.40;41.65
64841;BME280;51307;52.162;7.560;2023-02-14T16:06:00;102583.34;;;13.41;41.63